Time;durP1;ratioP1;P1;durP2;ratioP2;P2;SDS_P1;SDS_P2;PMS_P1;PMS_P2;Temp;Humidity;BMP_temperature;BMP_pressure;BME280_temperature;BME280_humidity;BME280_pressure;Samples;Min_cycle;Max_cycle;Signal;HPM_P1;HPM_P2
2023/07/25 00:00:03;;;;;;;22.48;9.90;;;;;;;24.67;40.83;99727.30;1719526;83;21303;-80
2023/07/25 00:03:10;;;;;;;18.30;9.08;;;;;;;24.40;41.34;99731.25;1719560;83;21350;-80
2023/07/25 00:06:16;;;;;;;28.42;10.45;;;;;;;24.27;41.54;99730.95;1719793;83;21334;-80
2023/07/25 00:09:26;;;;;;;22.73;9.20;;;;;;;24.34;41.57;99734.31;1720878;83;21327;-80
2023/07/25 00:12:29;;;;;;;17.05;9.00;;;;;;;24.43;41.41;99732.09;1719516;83;21315;-80
2023/07/25 00:15:35;;;;;;;20.05;9.68;;;;;;;24.38;41.34;99734.90;1720984;82;21350;-80
2023/07/25 00:18:40;;;;;;;20.72;10.03;;;;;;;24.35;41.36;99732.63;1733322;83;21303;-80
2023/07/25 00:21:47;;;;;;;22.80;9.20;;;;;;;24.32;41.52;99730.94;1732330;83;21908;-80
2023/07/25 00:24:54;;;;;;;20.10;10.75;;;;;;;24.34;41.65;99727.33;1733337;83;21345;-80
2023/07/25 00:28:00;;;;;;;16.65;9.88;;;;;;;24.34;41.73;99728.16;1735455;82;21338;-81
2023/07/25 00:31:14;;;;;;;19.80;9.78;;;;;;;24.34;41.83;99725.92;1735406;82;21335;-81
2023/07/25 00:34:21;;;;;;;20.75;9.88;;;;;;;24.10;42.25;99719.52;1734085;81;21307;-81
2023/07/25 00:37:26;;;;;;;18.80;9.60;;;;;;;23.93;42.45;99723.97;1734124;82;21351;-81
2023/07/25 00:40:31;;;;;;;21.20;10.32;;;;;;;23.80;42.47;99727.87;1711737;82;21324;-80
2023/07/25 00:43:37;;;;;;;22.80;9.78;;;;;;;23.79;42.49;99727.59;1736177;82;21300;-80
2023/07/25 00:46:37;;;;;;;23.55;10.15;;;;;;;23.89;42.29;99726.20;1734498;82;21323;-81
2023/07/25 00:49:43;;;;;;;22.15;10.13;;;;;;;24.08;41.99;99723.69;1735385;82;21937;-81
2023/07/25 00:52:49;;;;;;;31.97;10.13;;;;;;;24.09;41.89;99713.66;1734119;82;21878;-81
2023/07/25 00:55:55;;;;;;;23.07;10.75;;;;;;;24.14;41.84;99717.84;1734993;82;21402;-81
2023/07/25 00:59:03;;;;;;;27.37;11.43;;;;;;;24.22;41.90;99714.46;1735482;82;21303;-81
2023/07/25 01:02:09;;;;;;;26.02;10.78;;;;;;;24.15;42.10;99711.70;1735450;82;21335;-80
2023/07/25 01:05:16;;;;;;;27.25;11.15;;;;;;;24.23;42.02;99713.94;1714827;82;21296;-81
2023/07/25 01:08:22;;;;;;;28.90;11.57;;;;;;;24.36;41.84;99718.09;1735539;82;21307;-80
2023/07/25 01:11:29;;;;;;;23.95;11.60;;;;;;;24.45;41.76;99716.42;1735531;82;21320;-80
2023/07/25 01:14:39;;;;;;;19.40;11.83;;;;;;;24.47;41.48;99716.44;1736313;82;21303;-80
2023/07/25 01:17:44;;;;;;;20.72;11.75;;;;;;;24.30;41.60;99719.22;1727855;82;21312;-81
2023/07/25 01:20:53;;;;;;;23.62;10.50;;;;;;;24.35;41.48;99715.02;1722901;83;21316;-80
2023/07/25 01:23:58;;;;;;;25.50;10.63;;;;;;;24.27;41.70;99719.21;1721463;83;21308;-80
2023/07/25 01:27:03;;;;;;;21.48;11.15;;;;;;;24.34;41.73;99720.34;1722040;83;21300;-81
2023/07/25 01:30:12;;;;;;;22.62;10.68;;;;;;;24.09;42.06;99715.59;1722840;83;21177;-81
2023/07/25 01:33:20;;;;;;;19.57;11.55;;;;;;;23.89;42.51;99715.03;1722770;83;21312;-81
2023/07/25 01:36:26;;;;;;;23.80;10.53;;;;;;;23.85;42.64;99710.55;1722395;83;21336;-81
2023/07/25 01:39:32;;;;;;;24.72;11.25;;;;;;;23.99;42.43;99709.44;1722776;83;21328;-81
2023/07/25 01:42:37;;;;;;;23.67;11.03;;;;;;;23.95;42.51;99708.35;1722739;83;21300;-81
2023/07/25 01:45:44;;;;;;;16.48;10.28;;;;;;;23.89;42.50;99708.05;1722844;83;21308;-81
2023/07/25 01:48:50;;;;;;;21.15;11.38;;;;;;;23.89;42.75;99709.45;1722818;83;21301;-81
2023/07/25 01:51:56;;;;;;;19.00;10.78;;;;;;;23.83;42.88;99707.78;1722646;83;21352;-81
2023/07/25 01:55:03;;;;;;;18.90;10.15;;;;;;;23.87;42.77;99701.92;1721404;83;21878;-81
2023/07/25 01:58:13;;;;;;;16.30;10.10;;;;;;;23.67;43.02;99711.95;1721360;83;21373;-81
2023/07/25 02:01:19;;;;;;;18.20;10.03;;;;;;;23.57;43.36;99708.25;1722709;83;21300;-81
2023/07/25 02:04:12;;;;;;;20.37;10.45;;;;;;;23.86;42.86;99702.48;1722645;83;21300;-80
2023/07/25 02:07:18;;;;;;;16.30;9.48;;;;;;;23.67;43.30;99708.33;1720972;83;21340;-81
2023/07/25 02:10:27;;;;;;;14.30;9.28;;;;;;;23.70;43.40;99712.78;1720166;83;21304;-81
2023/07/25 02:13:33;;;;;;;21.68;10.38;;;;;;;23.68;43.41;99723.40;1719980;83;21324;-81
2023/07/25 02:16:40;;;;;;;16.23;10.23;;;;;;;23.61;43.48;99717.20;1721566;83;21352;-81
2023/07/25 02:19:46;;;;;;;23.07;10.08;;;;;;;23.79;43.16;99713.08;1722094;82;21372;-81
2023/07/25 02:22:45;;;;;;;19.07;9.93;;;;;;;23.74;43.14;99710.84;1708067;84;21342;-80
2023/07/25 02:25:51;;;;;;;13.20;9.15;;;;;;;23.79;43.10;99709.45;1707305;84;21330;-80
2023/07/25 02:28:58;;;;;;;15.40;8.55;;;;;;;23.87;43.04;99708.91;1747383;81;21303;-80
2023/07/25 02:32:04;;;;;;;14.40;9.33;;;;;;;23.91;43.10;99709.46;1744133;82;21319;-80
2023/07/25 02:35:10;;;;;;;19.17;9.55;;;;;;;24.19;42.61;99710.85;1744282;82;21921;-80
2023/07/25 02:38:15;;;;;;;28.70;9.33;;;;;;;24.29;42.61;99711.97;1744269;82;21873;-80
2023/07/25 02:41:22;;;;;;;17.57;9.05;;;;;;;24.62;42.16;99709.97;1745178;82;21291;-80
2023/07/25 02:44:29;;;;;;;13.15;8.08;;;;;;;25.19;41.48;99710.06;1745202;82;21933;-80
2023/07/25 02:47:35;;;;;;;14.25;8.73;;;;;;;25.46;41.13;99710.21;1743789;82;21299;-80
2023/07/25 02:50:41;;;;;;;14.55;8.28;;;;;;;25.86;40.63;99714.71;1743803;82;21304;-80
2023/07/25 02:53:48;;;;;;;16.80;8.55;;;;;;;26.30;40.05;99708.19;1743811;82;21346;-80
2023/07/25 02:56:53;;;;;;;19.40;8.15;;;;;;;26.51;39.51;99713.05;1745167;82;21925;-80
2023/07/25 02:59:59;;;;;;;17.55;7.83;;;;;;;26.80;38.97;99713.58;1745175;82;21318;-80
2023/07/25 03:03:05;;;;;;;18.50;7.95;;;;;;;27.08;38.55;99707.08;1744394;82;21334;-81
2023/07/25 03:06:13;;;;;;;17.10;8.28;;;;;;;27.35;38.20;99710.66;1745189;82;21299;-80
2023/07/25 03:09:20;;;;;;;20.52;7.55;;;;;;;27.63;37.88;99710.83;1743853;82;21897;-80
2023/07/25 03:12:26;;;;;;;19.32;7.70;;;;;;;27.93;37.65;99710.94;1743814;82;21306;-80
2023/07/25 03:15:32;;;;;;;31.48;8.30;;;;;;;28.40;37.11;99710.45;1743753;82;21302;-80
2023/07/25 03:18:37;;;;;;;20.52;8.05;;;;;;;28.40;37.38;99712.69;1744430;82;21905;-80
2023/07/25 03:21:43;;;;;;;17.65;7.17;;;;;;;28.92;36.59;99709.72;1761358;81;21353;-81
2023/07/25 03:24:50;;;;;;;19.82;7.80;;;;;;;28.99;36.37;99703.98;1760295;81;21332;-80
2023/07/25 03:27:56;;;;;;;28.60;8.50;;;;;;;29.12;36.09;99703.69;1761170;81;21308;-80
2023/07/25 03:31:02;;;;;;;16.75;7.78;;;;;;;29.43;35.60;99703.03;1761451;81;21190;-80
2023/07/25 03:34:08;;;;;;;21.52;7.65;;;;;;;29.65;35.41;99703.12;1761484;81;21313;-80
2023/07/25 03:37:07;;;;;;;24.55;7.85;;;;;;;29.67;35.84;99707.84;1761329;81;21324;-80
2023/07/25 03:39:59;;;;;;;17.92;7.92;;;;;;;29.96;36.17;99718.70;1760385;81;21326;-81
2023/07/25 03:43:06;;;;;;;15.83;7.85;;;;;;;30.15;36.03;99722.77;1761419;81;21301;-80
2023/07/25 03:46:12;;;;;;;15.88;7.90;;;;;;;30.12;36.11;99734.68;1759928;81;21329;-80
2023/07/25 03:49:17;;;;;;;20.72;7.55;;;;;;;30.48;35.87;99731.78;1760575;81;21297;-80
2023/07/25 03:52:22;;;;;;;20.52;7.37;;;;;;;30.59;35.71;99729.54;1760023;81;22600;-80
2023/07/25 03:55:28;;;;;;;16.27;8.10;;;;;;;30.63;35.85;99733.38;1761047;81;21317;-80
2023/07/25 03:58:35;;;;;;;11.10;6.55;;;;;;;30.88;35.69;99732.45;1761189;81;21329;-80
2023/07/25 04:01:40;;;;;;;17.35;6.92;;;;;;;30.73;36.06;99734.55;1761553;81;21336;-80
2023/07/25 04:04:47;;;;;;;11.10;6.90;;;;;;;30.95;35.67;99738.44;1760187;81;21202;-80
2023/07/25 04:07:53;;;;;;;11.65;5.45;;;;;;;30.93;35.60;99740.19;1760015;81;21312;-80
2023/07/25 04:10:59;;;;;;;14.98;6.28;;;;;;;31.15;35.34;99740.70;1762011;81;21330;-80
2023/07/25 04:14:04;;;;;;;8.25;6.12;;;;;;;31.05;35.37;99740.97;1761404;81;21293;-80
2023/07/25 04:17:10;;;;;;;20.37;6.92;;;;;;;31.04;35.38;99731.67;1761751;81;21310;-80
2023/07/25 04:20:16;;;;;;;9.75;5.97;;;;;;;30.96;35.45;99745.20;1760572;81;21344;-80
2023/07/25 04:23:22;;;;;;;11.70;6.35;;;;;;;30.96;35.57;99751.39;1767885;81;21301;-80
2023/07/25 04:26:26;;;;;;;11.50;6.70;;;;;;;30.89;35.64;99752.45;1767915;81;21327;-81
2023/07/25 04:29:32;;;;;;;15.78;5.72;;;;;;;30.99;35.71;99750.17;1767855;81;21922;-81
2023/07/25 04:32:38;;;;;;;16.67;6.03;;;;;;;30.97;35.47;99755.91;1769239;81;21329;-80
2023/07/25 04:35:46;;;;;;;10.40;6.05;;;;;;;31.27;35.21;99757.03;1767987;81;21610;-81
2023/07/25 04:38:52;;;;;;;13.32;5.92;;;;;;;31.25;35.40;99757.92;1769218;81;21355;-80
2023/07/25 04:41:58;;;;;;;13.90;5.40;;;;;;;31.26;35.24;99750.52;1769275;81;21872;-80
2023/07/25 04:45:04;;;;;;;10.82;5.47;;;;;;;31.51;35.11;99748.12;1769311;81;21329;-81
2023/07/25 04:48:09;;;;;;;17.70;5.72;;;;;;;31.60;34.87;99748.14;1769353;81;21301;-80
2023/07/25 04:51:15;;;;;;;9.20;5.58;;;;;;;31.98;34.29;99748.36;1769347;81;21323;-80
2023/07/25 04:54:22;;;;;;;12.82;5.47;;;;;;;32.20;33.86;99751.61;1769274;81;21178;-80
2023/07/25 04:57:28;;;;;;;7.30;4.95;;;;;;;32.30;33.88;99747.84;1769276;81;21321;-80
2023/07/25 05:00:33;;;;;;;11.75;5.47;;;;;;;32.54;33.05;99747.91;1768307;81;21330;-80
2023/07/25 05:03:32;;;;;;;17.75;5.90;;;;;;;32.69;32.53;99746.54;1767633;81;21363;-80
2023/07/25 05:06:39;;;;;;;16.65;5.53;;;;;;;32.70;32.64;99734.04;1769490;81;21312;-80
2023/07/25 05:09:45;;;;;;;9.43;5.00;;;;;;;32.78;32.81;99740.27;1769072;80;21328;-80
2023/07/25 05:12:45;;;;;;;11.63;4.55;;;;;;;33.03;32.36;99735.69;1781712;80;21176;-81
2023/07/25 05:15:38;;;;;;;17.23;5.70;;;;;;;33.07;32.17;99729.59;1783610;80;21197;-81
2023/07/25 05:18:46;;;;;;;12.28;4.80;;;;;;;33.36;32.13;99732.19;1756840;80;21881;-81
2023/07/25 05:21:53;;;;;;;17.62;4.53;;;;;;;33.32;32.56;99731.47;1754743;80;21355;-80
2023/07/25 05:24:59;;;;;;;8.65;4.62;;;;;;;33.79;31.59;99723.44;1768095;81;21310;-81
2023/07/25 05:28:06;;;;;;;9.88;4.72;;;;;;;33.95;31.31;99721.64;1768239;81;21859;-81
2023/07/25 05:31:11;;;;;;;9.60;4.20;;;;;;;34.10;30.89;99724.43;1767968;81;21293;-81
2023/07/25 05:34:17;;;;;;;12.03;4.20;;;;;;;34.27;31.03;99724.87;1769169;81;21312;-81
2023/07/25 05:37:28;;;;;;;7.05;4.28;;;;;;;34.45;30.62;99717.01;1739687;81;21279;-81
2023/07/25 05:40:37;;;;;;;11.53;4.30;;;;;;;34.39;30.81;99714.13;1751268;81;21295;-82
2023/07/25 05:43:42;;;;;;;9.13;4.17;;;;;;;34.58;30.78;99716.72;1751589;81;21280;-81
2023/07/25 05:46:51;;;;;;;8.03;4.03;;;;;;;34.87;30.12;99711.20;1743145;81;21300;-81
2023/07/25 05:49:58;;;;;;;12.35;4.60;;;;;;;35.00;29.96;99708.62;1761566;81;21299;-81
2023/07/25 05:53:04;;;;;;;11.60;3.80;;;;;;;35.00;30.23;99712.88;1754225;81;21851;-81
2023/07/25 05:56:10;;;;;;;12.70;4.58;;;;;;;35.26;30.14;99716.80;1751330;81;21177;-81
2023/07/25 05:59:15;;;;;;;18.87;4.62;;;;;;;35.14;30.07;99704.83;1761709;81;21277;-81
2023/07/25 06:02:21;;;;;;;14.65;3.77;;;;;;;35.43;30.45;99705.75;1752014;81;21287;-81
2023/07/25 06:05:27;;;;;;;6.45;4.25;;;;;;;35.81;29.21;99703.95;1768992;81;21312;-81
2023/07/25 06:08:34;;;;;;;10.98;4.25;;;;;;;35.67;29.15;99703.52;1763628;81;21303;-81
2023/07/25 06:11:39;;;;;;;7.03;4.20;;;;;;;35.63;29.24;99706.23;1766961;81;21308;-81
2023/07/25 06:14:45;;;;;;;8.88;4.58;;;;;;;36.46;28.12;99706.06;1766721;81;21284;-81
2023/07/25 06:17:52;;;;;;;6.72;4.05;;;;;;;36.55;27.50;99702.45;1740993;81;21303;-81
2023/07/25 06:20:58;;;;;;;6.85;4.17;;;;;;;36.67;27.64;99690.77;1763960;81;21323;-81
2023/07/25 06:24:05;;;;;;;7.00;4.22;;;;;;;36.67;27.64;99690.77;1765350;81;21347;-81
2023/07/25 06:27:11;;;;;;;13.03;4.50;;;;;;;36.89;27.07;99690.70;1758123;81;21308;-81
2023/07/25 06:30:17;;;;;;;6.22;3.47;;;;;;;36.89;27.07;99690.70;1760250;81;21280;-82
2023/07/25 06:33:22;;;;;;;10.32;3.62;;;;;;;36.46;28.38;99695.27;1762832;81;21304;-81
2023/07/25 06:36:29;;;;;;;9.08;3.98;;;;;;;35.90;28.34;99700.36;1769295;81;21312;-81
2023/07/25 06:39:34;;;;;;;16.02;4.22;;;;;;;35.90;28.34;99700.36;1760396;81;21285;-81
2023/07/25 06:42:34;;;;;;;6.95;3.50;;;;;;;36.32;27.33;99697.95;1766532;81;21312;-81
2023/07/25 06:45:29;;;;;;;9.18;3.60;;;;;;;36.32;27.33;99697.95;1765856;81;21316;-83
2023/07/25 06:48:34;;;;;;;6.40;3.67;;;;;;;36.53;26.76;99696.31;1767044;81;21260;-80
2023/07/25 06:51:40;;;;;;;6.72;3.77;;;;;;;36.52;27.00;99699.53;1760762;81;21315;-82
2023/07/25 06:54:48;;;;;;;4.87;3.35;;;;;;;36.86;26.03;99699.41;1767965;81;21339;-81
2023/07/25 06:57:55;;;;;;;13.85;3.65;;;;;;;36.27;26.68;99696.77;1768797;81;21316;-79
2023/07/25 07:01:01;;;;;;;10.60;3.77;;;;;;;36.27;27.06;99697.37;1767825;81;21897;-79
2023/07/25 07:04:07;;;;;;;7.30;3.50;;;;;;;36.45;26.49;99705.02;1766077;81;21298;-81
2023/07/25 07:07:12;;;;;;;13.03;3.87;;;;;;;36.49;26.61;99704.52;1748939;81;21303;-80
2023/07/25 07:10:32;;;;;;;11.90;3.65;;;;;;;36.89;26.34;99707.23;1766624;81;21902;-80
2023/07/25 07:13:40;;;;;;;6.15;3.17;;;;;;;37.05;26.45;99699.52;1766658;81;21280;-80
2023/07/25 07:16:47;;;;;;;10.48;3.83;;;;;;;37.14;26.10;99697.91;1761925;81;21280;-82
2023/07/25 07:19:54;;;;;;;5.47;3.72;;;;;;;37.51;25.92;99683.34;1764510;81;21279;-80
2023/07/25 07:23:01;;;;;;;15.28;3.80;;;;;;;37.40;25.83;99676.54;1763062;81;21351;-81
2023/07/25 07:26:07;;;;;;;6.72;3.52;;;;;;;37.33;26.28;99675.16;1767731;81;21727;-81
2023/07/25 07:29:13;;;;;;;11.70;3.77;;;;;;;37.17;26.13;99677.22;1765426;81;21318;-79
2023/07/25 07:32:18;;;;;;;6.62;3.62;;;;;;;37.38;26.26;99676.10;1764580;81;21299;-81
2023/07/25 07:35:25;;;;;;;5.25;3.77;;;;;;;37.40;26.06;99668.80;1757344;81;21291;-80
2023/07/25 07:38:32;;;;;;;10.20;3.98;;;;;;;37.51;26.02;99666.22;1766014;81;22496;-79
2023/07/25 07:41:38;;;;;;;6.55;3.83;;;;;;;37.54;24.89;99656.30;1765725;81;21379;-81
2023/07/25 07:44:44;;;;;;;12.20;3.83;;;;;;;37.55;25.30;99669.98;1748226;81;21335;-81
2023/07/25 07:47:50;;;;;;;12.85;4.12;;;;;;;37.61;25.12;99654.22;1766723;80;21237;-80
2023/07/25 07:50:56;;;;;;;11.55;3.92;;;;;;;37.63;25.08;99640.39;1768355;81;21315;-81
2023/07/25 07:54:01;;;;;;;11.08;3.75;;;;;;;37.84;25.10;99646.60;1767269;81;21330;-80
2023/07/25 07:57:06;;;;;;;9.90;3.70;;;;;;;37.90;24.58;99649.15;1766561;81;21304;-81
2023/07/25 08:00:13;;;;;;;6.37;3.83;;;;;;;37.90;25.21;99649.97;1737901;81;21272;-81
2023/07/25 08:03:20;;;;;;;11.45;3.72;;;;;;;37.88;24.55;99652.96;1764295;80;21350;-81
2023/07/25 08:06:28;;;;;;;9.95;3.70;;;;;;;37.94;24.47;99657.19;1765464;81;21351;-81
2023/07/25 08:09:34;;;;;;;7.22;4.05;;;;;;;37.76;24.88;99663.91;1765469;81;21367;-81
2023/07/25 08:12:40;;;;;;;9.43;4.12;;;;;;;38.03;24.37;99666.34;1767545;81;21887;-81
2023/07/25 08:15:47;;;;;;;5.28;4.00;;;;;;;38.14;23.95;99671.66;1766387;81;21295;-81
2023/07/25 08:18:46;;;;;;;5.50;3.25;;;;;;;38.29;23.94;99676.44;1767887;81;21328;-81
2023/07/25 08:21:40;;;;;;;8.18;4.50;;;;;;;38.06;24.38;99669.86;1758436;81;22366;-81
2023/07/25 08:24:35;;;;;;;6.97;4.50;;;;;;;38.04;24.37;99660.86;1769928;79;21976;-80
2023/07/25 08:27:52;;;;;;;7.42;3.98;;;;;;;38.25;24.50;99656.98;1782325;80;21331;-80
2023/07/25 08:31:11;;;;;;;6.40;4.20;;;;;;;38.26;23.95;99644.98;1757185;80;21334;-80
2023/07/25 08:34:16;;;;;;;;;;;;;;;38.36;24.31;99647.24;1748052;82;21303;-80
2023/07/25 08:37:24;;;;;;;6.85;3.70;;;;;;;38.60;23.78;99628.30;1746825;82;20729;-80
2023/07/25 08:40:30;;;;;;;5.60;3.87;;;;;;;38.67;23.27;99634.72;1746826;82;21303;-80
2023/07/25 08:43:35;;;;;;;6.58;4.30;;;;;;;38.59;22.88;99625.83;1779711;80;22551;-80
2023/07/25 08:46:40;;;;;;;8.43;3.95;;;;;;;38.61;23.40;99633.41;1770490;80;22239;-80
2023/07/25 08:49:49;;;;;;;6.03;4.08;;;;;;;38.79;23.37;99630.28;1783366;80;21803;-80
2023/07/25 08:52:56;;;;;;;9.30;3.73;;;;;;;38.93;22.33;99636.84;1782026;80;21902;-80
2023/07/25 08:56:04;;;;;;;7.00;4.20;;;;;;;38.61;23.02;99635.66;1783297;80;21307;-80
2023/07/25 08:59:10;;;;;;;31.33;4.70;;;;;;;38.58;22.52;99627.02;1782935;80;21323;-80
2023/07/25 09:02:10;;;;;;;5.65;4.12;;;;;;;38.67;22.20;99618.19;1783115;80;21310;-80
2023/07/25 09:05:03;;;;;;;7.87;3.87;;;;;;;38.84;22.28;99621.38;1748445;80;21287;-80
2023/07/25 09:08:09;;;;;;;8.03;4.12;;;;;;;38.74;22.26;99619.14;1752075;80;21330;-80
2023/07/25 09:11:16;;;;;;;6.17;3.77;;;;;;;38.57;22.46;99613.94;1775816;80;21299;-80
2023/07/25 09:14:22;;;;;;;8.40;4.40;;;;;;;38.66;22.26;99615.94;1780433;80;21339;-80
2023/07/25 09:17:26;;;;;;;8.65;3.87;;;;;;;38.82;21.85;99626.66;1768084;81;21661;-81
2023/07/25 09:20:33;;;;;;;6.03;4.17;;;;;;;38.70;22.25;99618.25;1767871;81;21332;-80
2023/07/25 09:23:40;;;;;;;7.97;4.37;;;;;;;38.79;22.30;99614.56;1766654;81;21316;-80
2023/07/25 09:26:46;;;;;;;8.28;4.28;;;;;;;38.75;22.47;99609.96;1765387;81;21332;-80
2023/07/25 09:29:51;;;;;;;7.05;4.40;;;;;;;38.66;22.53;99595.11;1761360;81;22386;-80
2023/07/25 09:32:57;;;;;;;12.15;4.47;;;;;;;38.69;22.29;99586.61;1746290;82;21314;-80
2023/07/25 09:36:02;;;;;;;7.42;3.80;;;;;;;38.82;22.55;99590.13;1726151;82;21318;-80
2023/07/25 09:39:09;;;;;;;9.90;4.05;;;;;;;38.99;22.23;99580.16;1747940;81;21224;-80
2023/07/25 09:42:16;;;;;;;8.53;4.00;;;;;;;39.04;22.74;99577.78;1750494;80;21881;-80
2023/07/25 09:45:21;;;;;;;10.53;3.87;;;;;;;39.09;22.99;99578.88;1769271;80;21910;-80
2023/07/25 09:48:28;;;;;;;7.95;4.00;;;;;;;38.97;22.75;99568.30;1784650;80;21291;-80
2023/07/25 09:51:34;;;;;;;7.08;4.17;;;;;;;38.77;23.38;99566.98;1784633;80;21303;-80
2023/07/25 09:54:39;;;;;;;8.38;4.00;;;;;;;38.79;23.77;99568.84;1782087;80;21316;-80
2023/07/25 09:57:46;;;;;;;7.55;4.10;;;;;;;38.85;23.93;99577.29;1752844;82;21311;-80
2023/07/25 10:00:52;;;;;;;7.42;3.40;;;;;;;38.99;23.32;99562.39;1752037;82;21350;-80
2023/07/25 10:03:58;;;;;;;10.70;3.85;;;;;;;39.18;23.26;99560.01;1753127;80;21354;-80
2023/07/25 10:07:06;;;;;;;8.08;3.22;;;;;;;39.15;23.62;99566.52;1740091;81;21322;-80
2023/07/25 10:10:26;;;;;;;6.90;3.62;;;;;;;39.05;23.59;99559.44;1751987;82;21317;-80
2023/07/25 10:13:24;;;;;;;7.80;3.30;;;;;;;38.89;23.89;99555.09;1771796;80;21145;-80
2023/07/25 10:16:25;;;;;;;9.48;3.50;;;;;;;38.56;24.36;99546.59;1751227;82;21369;-80
2023/07/25 10:19:29;;;;;;;8.63;3.33;;;;;;;38.54;24.51;99549.84;1756582;80;21304;-80
2023/07/25 10:22:46;;;;;;;5.37;2.77;;;;;;;38.75;24.49;99545.09;1780140;80;21308;-81
2023/07/25 10:25:54;;;;;;;6.45;3.20;;;;;;;38.83;24.49;99538.28;1780293;80;21342;-81
2023/07/25 10:28:59;;;;;;;9.00;3.50;;;;;;;38.69;24.45;99542.92;1776677;80;21941;-81
2023/07/25 10:32:05;;;;;;;5.47;3.30;;;;;;;38.71;24.67;99547.03;1778729;80;21311;-81
2023/07/25 10:35:11;;;;;;;5.17;3.08;;;;;;;38.56;24.35;99530.88;1782086;80;21351;-81
2023/07/25 10:38:20;;;;;;;3.98;3.12;;;;;;;38.58;24.30;99532.16;1783048;80;21307;-80
2023/07/25 10:41:26;;;;;;;7.45;3.12;;;;;;;38.82;24.14;99527.25;1782878;80;21335;-81
2023/07/25 10:44:44;;;;;;;3.87;2.90;;;;;;;39.03;24.19;99536.12;1772625;80;21308;-81
2023/07/25 10:47:53;;;;;;;12.03;3.60;;;;;;;39.06;24.02;99523.09;1768076;81;21300;-80
2023/07/25 10:50:58;;;;;;;7.35;3.05;;;;;;;39.15;23.95;99522.78;1768246;81;21296;-80
2023/07/25 10:54:20;;;;;;;11.90;3.05;;;;;;;39.19;23.64;99524.48;1768090;81;21911;-80
2023/07/25 10:57:26;;;;;;;10.03;2.90;;;;;;;39.55;23.23;99513.53;1777092;80;21322;-80
2023/07/25 11:00:45;;;;;;;5.30;2.65;;;;;;;39.41;23.32;99514.78;1751153;82;21282;-80
2023/07/25 11:03:52;;;;;;;8.18;3.60;;;;;;;39.78;22.85;99513.41;1779534;79;21354;-80
2023/07/25 11:06:58;;;;;;;3.80;2.85;;;;;;;39.44;23.26;99505.44;1783663;80;21291;-80
2023/07/25 11:13:17;;;;;;;3.62;2.85;;;;;;;39.50;23.45;99508.16;1776505;80;21276;-80
2023/07/25 11:16:22;;;;;;;12.30;3.02;;;;;;;39.43;23.48;99498.89;1781777;80;21357;-80
2023/07/25 11:19:35;;;;;;;9.45;3.12;;;;;;;39.39;23.14;99492.91;1782104;80;21307;-80
2023/07/25 11:22:41;;;;;;;13.60;3.33;;;;;;;39.43;23.34;99481.73;1783672;80;21322;-80
2023/07/25 11:25:47;;;;;;;9.05;3.05;;;;;;;39.42;23.19;99482.10;1781942;80;21942;-80
2023/07/25 11:28:53;;;;;;;4.90;2.83;;;;;;;39.21;23.36;99473.48;1768318;80;21331;-80
2023/07/25 11:32:02;;;;;;;6.67;3.22;;;;;;;39.17;23.63;99478.91;1761717;81;21276;-82
2023/07/25 11:35:09;;;;;;;5.40;2.98;;;;;;;39.33;23.58;99474.64;1766896;81;21312;-81
2023/07/25 11:38:09;;;;;;;6.55;3.47;;;;;;;39.44;23.68;99471.11;1769689;81;21327;-79
2023/07/25 11:41:15;;;;;;;10.93;3.58;;;;;;;39.45;23.38;99467.84;1768294;81;21338;-79
2023/07/25 11:44:24;;;;;;;6.45;3.25;;;;;;;39.50;23.57;99463.81;1771434;81;21299;-79
2023/07/25 11:47:30;;;;;;;8.03;3.98;;;;;;;39.50;23.37;99459.52;1739839;82;21334;-79
2023/07/25 11:50:35;;;;;;;4.85;3.17;;;;;;;39.57;22.96;99467.59;1739913;82;21304;-78
2023/07/25 11:53:40;;;;;;;6.95;3.40;;;;;;;39.99;22.66;99459.83;1745881;81;21324;-79
2023/07/25 11:56:46;;;;;;;6.33;3.22;;;;;;;39.56;23.18;99461.63;1769843;81;21307;-79
2023/07/25 11:59:51;;;;;;;6.35;3.42;;;;;;;39.71;23.25;99465.48;1770599;81;21272;-79
2023/07/25 12:02:57;;;;;;;4.47;2.98;;;;;;;39.80;23.00;99453.72;1760793;81;21356;-79
2023/07/25 12:06:06;;;;;;;6.65;3.08;;;;;;;39.92;23.32;99452.63;1768359;81;21689;-79
2023/07/25 12:09:11;;;;;;;9.65;3.27;;;;;;;40.05;22.98;99451.93;1740162;82;21866;-79
2023/07/25 12:12:23;;;;;;;11.90;3.45;;;;;;;40.12;23.08;99445.45;1741193;81;21304;-79
2023/07/25 12:15:31;;;;;;;8.20;3.50;;;;;;;39.99;22.80;99448.38;1770899;81;21352;-79
2023/07/25 12:18:38;;;;;;;9.20;3.30;;;;;;;39.86;22.77;99445.02;1770859;81;22653;-79
2023/07/25 12:21:47;;;;;;;6.12;3.72;;;;;;;39.73;23.24;99445.08;1770540;81;21323;-79
2023/07/25 12:24:53;;;;;;;4.37;3.35;;;;;;;39.92;23.04;99442.60;1768997;81;21319;-79
2023/07/25 12:27:59;;;;;;;8.90;3.33;;;;;;;39.63;23.12;99438.01;1760970;81;21312;-79
2023/07/25 12:31:03;;;;;;;9.53;3.52;;;;;;;39.57;23.11;99424.67;1761128;80;21334;-79
2023/07/25 12:34:09;;;;;;;8.53;3.72;;;;;;;39.60;23.26;99420.19;1778243;80;21867;-79
2023/07/25 12:37:15;;;;;;;14.65;3.92;;;;;;;39.60;23.24;99414.46;1778052;80;21295;-79
2023/07/25 12:40:21;;;;;;;6.83;3.92;;;;;;;39.55;23.48;99407.67;1778997;80;21299;-79
2023/07/25 12:43:28;;;;;;;5.53;3.85;;;;;;;39.55;23.50;99409.92;1779019;80;21295;-79
2023/07/25 12:46:37;;;;;;;10.13;3.55;;;;;;;39.52;23.14;99387.80;1778726;80;21335;-79
2023/07/25 12:49:44;;;;;;;8.13;4.03;;;;;;;39.47;23.38;99383.06;1779232;80;21854;-79
2023/07/25 12:52:51;;;;;;;11.28;4.47;;;;;;;39.50;23.48;99380.85;1779093;80;21236;-79
2023/07/25 12:55:57;;;;;;;8.95;4.60;;;;;;;39.42;23.61;99369.11;1779183;80;21859;-79
2023/07/25 12:59:03;;;;;;;6.67;4.22;;;;;;;39.43;23.34;99377.91;1779161;80;21339;-82
2023/07/25 13:02:09;;;;;;;8.68;5.00;;;;;;;39.21;23.14;99370.55;1779682;79;21395;-81
2023/07/25 13:05:15;;;;;;;9.63;5.95;;;;;;;39.20;23.39;99370.95;1779183;80;21283;-81
2023/07/25 13:08:21;;;;;;;7.97;5.37;;;;;;;39.24;22.72;99361.20;1777607;80;21331;-81
2023/07/25 13:11:28;;;;;;;8.90;4.80;;;;;;;39.31;22.76;99370.44;1748372;82;21303;-81
2023/07/25 13:14:34;;;;;;;8.25;4.85;;;;;;;39.41;22.98;99367.48;1748381;82;21295;-80
2023/07/25 13:17:41;;;;;;;7.20;4.87;;;;;;;39.49;22.96;99362.05;1748801;82;21866;-80
2023/07/25 13:20:47;;;;;;;10.38;5.90;;;;;;;39.49;23.07;99357.14;1748467;82;21304;-80
2023/07/25 13:23:52;;;;;;;9.40;5.35;;;;;;;39.46;22.78;99352.81;1747867;82;21375;-80
2023/07/25 13:27:00;;;;;;;11.12;4.47;;;;;;;39.42;23.05;99357.67;1748096;82;21359;-80
2023/07/25 13:30:06;;;;;;;13.40;5.65;;;;;;;39.47;23.06;99366.72;1748815;81;21195;-80
2023/07/25 13:33:12;;;;;;;7.83;5.20;;;;;;;39.34;23.03;99371.09;1752190;82;21303;-80
2023/07/25 13:36:18;;;;;;;8.73;5.70;;;;;;;39.46;23.25;99361.39;1753631;82;21325;-80
2023/07/25 13:39:25;;;;;;;8.08;5.78;;;;;;;39.57;22.99;99365.17;1753005;82;21326;-80
2023/07/25 13:42:32;;;;;;;11.57;5.70;;;;;;;39.44;22.61;99370.99;1753621;82;21327;-80
2023/07/25 13:45:42;;;;;;;10.10;5.80;;;;;;;39.47;22.34;99358.74;1753700;82;21351;-82
2023/07/25 13:48:51;;;;;;;8.18;5.20;;;;;;;39.38;22.55;99351.91;1752598;82;21219;-82
2023/07/25 13:51:58;;;;;;;7.22;4.92;;;;;;;39.39;23.11;99359.91;1753680;82;21310;-79
2023/07/25 13:55:03;;;;;;;9.00;5.12;;;;;;;39.19;23.36;99356.38;1752832;82;21338;-79
2023/07/25 13:58:03;;;;;;;9.83;5.10;;;;;;;39.52;22.98;99354.09;1752964;82;21299;-79
2023/07/25 14:01:10;;;;;;;7.83;4.72;;;;;;;39.10;23.39;99367.55;1753749;82;21299;-79
2023/07/25 14:04:17;;;;;;;8.83;5.95;;;;;;;39.04;23.49;99353.97;1753714;82;21306;-79
2023/07/25 14:07:25;;;;;;;12.28;5.75;;;;;;;38.92;23.46;99355.08;1753452;82;21374;-79
2023/07/25 14:10:33;;;;;;;12.13;5.47;;;;;;;38.96;23.60;99350.81;1752692;82;21318;-79
2023/07/25 14:13:40;;;;;;;11.50;4.90;;;;;;;38.82;23.90;99348.63;1753669;82;21300;-79
2023/07/25 14:16:45;;;;;;;9.60;6.05;;;;;;;38.66;24.39;99346.55;1752187;82;21650;-79
2023/07/25 14:19:52;;;;;;;8.43;5.80;;;;;;;38.54;24.44;99339.88;1752131;82;21897;-79
2023/07/25 14:22:57;;;;;;;13.10;5.33;;;;;;;38.52;24.48;99334.33;1752095;82;21307;-79
2023/07/25 14:26:03;;;;;;;9.20;4.97;;;;;;;38.55;24.63;99338.66;1752385;82;21903;-82
2023/07/25 14:29:10;;;;;;;17.40;5.42;;;;;;;38.43;24.89;99344.61;1752353;82;21343;-80
2023/07/25 14:32:15;;;;;;;7.20;5.28;;;;;;;38.31;25.30;99341.40;1752987;81;21334;-80